sensor_id;sensor_type;location;lat;lon;timestamp;temperature;humidity
2647;DHT22;1333;50.958;6.770;2023-10-08T00:01:34;19.80;99.90
2647;DHT22;1333;50.958;6.770;2023-10-08T00:04:00;19.70;99.90
2647;DHT22;1333;50.958;6.770;2023-10-08T00:06:29;19.70;99.90
2647;DHT22;1333;50.958;6.770;2023-10-08T00:08:55;19.70;99.90
2647;DHT22;1333;50.958;6.770;2023-10-08T00:11:25;19.50;99.90
2647;DHT22;1333;50.958;6.770;2023-10-08T00:13:51;19.50;99.90
2647;DHT22;1333;50.958;6.770;2023-10-08T00:16:21;19.30;99.90
2647;DHT22;1333;50.958;6.770;2023-10-08T00:18:47;19.20;99.90
2647;DHT22;1333;50.958;6.770;2023-10-08T00:21:17;19.00;99.90
2647;DHT22;1333;50.958;6.770;2023-10-08T00:23:44;19.00;99.90
2647;DHT22;1333;50.958;6.770;2023-10-08T00:26:26;18.90;99.90
2647;DHT22;1333;50.958;6.770;2023-10-08T00:29:05;18.80;99.90
2647;DHT22;1333;50.958;6.770;2023-10-08T00:31:44;18.70;99.90
2647;DHT22;1333;50.958;6.770;2023-10-08T00:34:14;18.60;99.90
2647;DHT22;1333;50.958;6.770;2023-10-08T00:36:45;18.60;99.90
2647;DHT22;1333;50.958;6.770;2023-10-08T00:39:12;18.60;99.90
2647;DHT22;1333;50.958;6.770;2023-10-08T00:41:43;18.60;99.90
2647;DHT22;1333;50.958;6.770;2023-10-08T00:44:10;18.60;99.90
2647;DHT22;1333;50.958;6.770;2023-10-08T00:46:59;18.60;99.90
2647;DHT22;1333;50.958;6.770;2023-10-08T00:49:27;18.50;99.90
2647;DHT22;1333;50.958;6.770;2023-10-08T00:52:14;18.60;99.90
2647;DHT22;1333;50.958;6.770;2023-10-08T00:54:41;18.60;99.90
2647;DHT22;1333;50.958;6.770;2023-10-08T00:57:27;18.60;99.90
2647;DHT22;1333;50.958;6.770;2023-10-08T00:59:55;18.60;99.90
2647;DHT22;1333;50.958;6.770;2023-10-08T01:02:26;18.60;99.90
2647;DHT22;1333;50.958;6.770;2023-10-08T01:04:54;18.60;99.90
2647;DHT22;1333;50.958;6.770;2023-10-08T01:07:20;18.70;99.90
2647;DHT22;1333;50.958;6.770;2023-10-08T01:09:47;18.60;99.90
2647;DHT22;1333;50.958;6.770;2023-10-08T01:12:22;18.70;99.90
2647;DHT22;1333;50.958;6.770;2023-10-08T01:15:02;18.80;99.90
2647;DHT22;1333;50.958;6.770;2023-10-08T01:17:41;18.80;99.90
2647;DHT22;1333;50.958;6.770;2023-10-08T01:20:16;18.70;99.90
2647;DHT22;1333;50.958;6.770;2023-10-08T01:22:58;18.60;99.90
2647;DHT22;1333;50.958;6.770;2023-10-08T01:25:24;18.50;99.90
2647;DHT22;1333;50.958;6.770;2023-10-08T01:27:58;18.50;99.90
2647;DHT22;1333;50.958;6.770;2023-10-08T01:30:34;18.30;99.90
2647;DHT22;1333;50.958;6.770;2023-10-08T01:33:01;18.20;99.90
2647;DHT22;1333;50.958;6.770;2023-10-08T01:35:28;18.10;99.90
2647;DHT22;1333;50.958;6.770;2023-10-08T01:37:57;18.10;99.90
2647;DHT22;1333;50.958;6.770;2023-10-08T01:40:24;18.00;99.90
2647;DHT22;1333;50.958;6.770;2023-10-08T01:42:51;17.90;99.90
2647;DHT22;1333;50.958;6.770;2023-10-08T01:45:17;17.80;99.90
2647;DHT22;1333;50.958;6.770;2023-10-08T01:47:43;17.80;99.90
2647;DHT22;1333;50.958;6.770;2023-10-08T01:50:09;17.80;99.90
2647;DHT22;1333;50.958;6.770;2023-10-08T01:52:47;17.90;99.90
2647;DHT22;1333;50.958;6.770;2023-10-08T01:55:12;17.80;99.90
2647;DHT22;1333;50.958;6.770;2023-10-08T01:57:42;17.80;99.90
2647;DHT22;1333;50.958;6.770;2023-10-08T02:00:09;17.80;99.90
2647;DHT22;1333;50.958;6.770;2023-10-08T02:02:35;17.70;99.90
2647;DHT22;1333;50.958;6.770;2023-10-08T02:05:01;17.70;99.90
2647;DHT22;1333;50.958;6.770;2023-10-08T02:07:26;17.70;99.90
2647;DHT22;1333;50.958;6.770;2023-10-08T02:09:54;17.70;99.90
2647;DHT22;1333;50.958;6.770;2023-10-08T02:12:19;17.60;99.90
2647;DHT22;1333;50.958;6.770;2023-10-08T02:14:45;17.50;99.90
2647;DHT22;1333;50.958;6.770;2023-10-08T02:17:10;17.50;99.90
2647;DHT22;1333;50.958;6.770;2023-10-08T02:19:38;17.50;99.90
2647;DHT22;1333;50.958;6.770;2023-10-08T02:22:04;17.50;99.90
2647;DHT22;1333;50.958;6.770;2023-10-08T02:24:35;17.40;99.90
2647;DHT22;1333;50.958;6.770;2023-10-08T02:27:01;17.40;99.90
2647;DHT22;1333;50.958;6.770;2023-10-08T02:29:30;17.40;99.90
2647;DHT22;1333;50.958;6.770;2023-10-08T02:31:57;17.40;99.90
2647;DHT22;1333;50.958;6.770;2023-10-08T02:34:23;17.40;99.90
2647;DHT22;1333;50.958;6.770;2023-10-08T02:36:48;17.40;99.90
2647;DHT22;1333;50.958;6.770;2023-10-08T02:39:14;17.40;99.90
2647;DHT22;1333;50.958;6.770;2023-10-08T02:41:47;17.50;99.90
2647;DHT22;1333;50.958;6.770;2023-10-08T02:44:14;17.50;99.90
2647;DHT22;1333;50.958;6.770;2023-10-08T02:46:41;17.50;99.90
2647;DHT22;1333;50.958;6.770;2023-10-08T02:49:09;17.60;99.90
2647;DHT22;1333;50.958;6.770;2023-10-08T02:51:42;17.70;99.90
2647;DHT22;1333;50.958;6.770;2023-10-08T02:54:12;17.70;99.90
2647;DHT22;1333;50.958;6.770;2023-10-08T02:56:51;17.80;99.90
2647;DHT22;1333;50.958;6.770;2023-10-08T02:59:18;17.80;99.90
2647;DHT22;1333;50.958;6.770;2023-10-08T03:01:47;17.80;99.90
2647;DHT22;1333;50.958;6.770;2023-10-08T03:04:14;17.90;99.90
2647;DHT22;1333;50.958;6.770;2023-10-08T03:06:43;17.90;99.90
2647;DHT22;1333;50.958;6.770;2023-10-08T03:09:10;17.80;99.90
2647;DHT22;1333;50.958;6.770;2023-10-08T03:11:39;17.90;99.90
2647;DHT22;1333;50.958;6.770;2023-10-08T03:14:06;18.00;99.90
2647;DHT22;1333;50.958;6.770;2023-10-08T03:16:40;18.00;99.90
2647;DHT22;1333;50.958;6.770;2023-10-08T03:19:06;18.00;99.90
2647;DHT22;1333;50.958;6.770;2023-10-08T03:21:32;18.00;99.90
2647;DHT22;1333;50.958;6.770;2023-10-08T03:24:03;17.90;99.90
2647;DHT22;1333;50.958;6.770;2023-10-08T03:26:38;18.00;99.90
2647;DHT22;1333;50.958;6.770;2023-10-08T03:29:05;18.00;99.90
2647;DHT22;1333;50.958;6.770;2023-10-08T03:31:33;18.00;99.90
2647;DHT22;1333;50.958;6.770;2023-10-08T03:34:15;17.90;99.90
2647;DHT22;1333;50.958;6.770;2023-10-08T03:36:43;18.00;99.90
2647;DHT22;1333;50.958;6.770;2023-10-08T03:39:16;17.90;99.90
2647;DHT22;1333;50.958;6.770;2023-10-08T03:41:44;17.90;99.90
2647;DHT22;1333;50.958;6.770;2023-10-08T03:44:23;17.80;99.90
2647;DHT22;1333;50.958;6.770;2023-10-08T03:46:49;17.80;99.90
2647;DHT22;1333;50.958;6.770;2023-10-08T03:49:17;17.70;99.90
2647;DHT22;1333;50.958;6.770;2023-10-08T03:51:46;17.80;99.90
2647;DHT22;1333;50.958;6.770;2023-10-08T03:54:13;17.70;99.90
2647;DHT22;1333;50.958;6.770;2023-10-08T03:56:43;17.70;99.90
2647;DHT22;1333;50.958;6.770;2023-10-08T03:59:14;17.70;99.90
2647;DHT22;1333;50.958;6.770;2023-10-08T04:01:46;17.70;99.90
2647;DHT22;1333;50.958;6.770;2023-10-08T04:04:14;17.70;99.90
2647;DHT22;1333;50.958;6.770;2023-10-08T04:06:43;17.70;99.90
2647;DHT22;1333;50.958;6.770;2023-10-08T04:09:17;17.70;99.90
2647;DHT22;1333;50.958;6.770;2023-10-08T04:11:50;17.70;99.90
2647;DHT22;1333;50.958;6.770;2023-10-08T04:14:16;17.70;99.90
2647;DHT22;1333;50.958;6.770;2023-10-08T04:16:42;17.60;99.90
2647;DHT22;1333;50.958;6.770;2023-10-08T04:19:08;17.60;99.90
2647;DHT22;1333;50.958;6.770;2023-10-08T04:21:34;17.70;99.90
2647;DHT22;1333;50.958;6.770;2023-10-08T04:24:00;17.60;99.90
2647;DHT22;1333;50.958;6.770;2023-10-08T04:26:34;17.50;99.90
2647;DHT22;1333;50.958;6.770;2023-10-08T04:29:01;17.50;99.90
2647;DHT22;1333;50.958;6.770;2023-10-08T04:31:30;17.50;99.90
2647;DHT22;1333;50.958;6.770;2023-10-08T04:34:06;17.50;99.90
2647;DHT22;1333;50.958;6.770;2023-10-08T04:36:38;17.60;99.90
2647;DHT22;1333;50.958;6.770;2023-10-08T04:39:04;17.50;99.90
2647;DHT22;1333;50.958;6.770;2023-10-08T04:41:41;17.50;99.90
2647;DHT22;1333;50.958;6.770;2023-10-08T04:44:11;17.40;99.90
2647;DHT22;1333;50.958;6.770;2023-10-08T04:46:44;17.40;99.90
2647;DHT22;1333;50.958;6.770;2023-10-08T04:49:17;17.30;99.90
2647;DHT22;1333;50.958;6.770;2023-10-08T04:51:57;17.20;99.90
2647;DHT22;1333;50.958;6.770;2023-10-08T04:54:29;17.20;99.90
2647;DHT22;1333;50.958;6.770;2023-10-08T04:56:59;17.20;99.90
2647;DHT22;1333;50.958;6.770;2023-10-08T04:59:28;17.20;99.90
2647;DHT22;1333;50.958;6.770;2023-10-08T05:02:01;17.20;99.90
2647;DHT22;1333;50.958;6.770;2023-10-08T05:04:50;17.20;99.90
2647;DHT22;1333;50.958;6.770;2023-10-08T05:07:16;17.20;99.90
2647;DHT22;1333;50.958;6.770;2023-10-08T05:09:44;17.10;99.90
2647;DHT22;1333;50.958;6.770;2023-10-08T05:12:28;17.10;99.90
2647;DHT22;1333;50.958;6.770;2023-10-08T05:15:04;17.10;99.90
2647;DHT22;1333;50.958;6.770;2023-10-08T05:17:40;17.10;99.90
2647;DHT22;1333;50.958;6.770;2023-10-08T05:20:15;17.00;99.90
2647;DHT22;1333;50.958;6.770;2023-10-08T05:22:59;17.00;99.90
2647;DHT22;1333;50.958;6.770;2023-10-08T05:25:43;16.80;99.90
2647;DHT22;1333;50.958;6.770;2023-10-08T05:28:27;16.80;99.90
2647;DHT22;1333;50.958;6.770;2023-10-08T05:30:55;16.70;99.90
2647;DHT22;1333;50.958;6.770;2023-10-08T05:33:40;16.80;99.90
2647;DHT22;1333;50.958;6.770;2023-10-08T05:36:11;16.80;99.90
2647;DHT22;1333;50.958;6.770;2023-10-08T05:38:43;16.80;99.90
2647;DHT22;1333;50.958;6.770;2023-10-08T05:41:24;16.70;99.90
2647;DHT22;1333;50.958;6.770;2023-10-08T05:43:54;16.70;99.90
2647;DHT22;1333;50.958;6.770;2023-10-08T05:46:40;16.70;99.90
2647;DHT22;1333;50.958;6.770;2023-10-08T05:49:14;16.70;99.90
2647;DHT22;1333;50.958;6.770;2023-10-08T05:51:41;16.80;99.90
2647;DHT22;1333;50.958;6.770;2023-10-08T05:54:25;16.80;99.90
2647;DHT22;1333;50.958;6.770;2023-10-08T05:57:01;16.80;99.90
2647;DHT22;1333;50.958;6.770;2023-10-08T05:59:37;16.80;99.90
2647;DHT22;1333;50.958;6.770;2023-10-08T06:02:31;16.80;99.90
2647;DHT22;1333;50.958;6.770;2023-10-08T06:05:02;16.80;99.90
2647;DHT22;1333;50.958;6.770;2023-10-08T06:07:50;16.80;99.90
2647;DHT22;1333;50.958;6.770;2023-10-08T06:10:27;16.80;99.90
2647;DHT22;1333;50.958;6.770;2023-10-08T06:13:10;16.80;99.90
2647;DHT22;1333;50.958;6.770;2023-10-08T06:15:40;16.90;99.90
2647;DHT22;1333;50.958;6.770;2023-10-08T06:21:01;17.00;99.90
2647;DHT22;1333;50.958;6.770;2023-10-08T06:23:33;17.00;99.90
2647;DHT22;1333;50.958;6.770;2023-10-08T06:26:01;17.10;99.90
2647;DHT22;1333;50.958;6.770;2023-10-08T06:28:37;17.10;99.90
2647;DHT22;1333;50.958;6.770;2023-10-08T06:31:04;17.20;99.90
2647;DHT22;1333;50.958;6.770;2023-10-08T06:33:32;17.20;99.90
2647;DHT22;1333;50.958;6.770;2023-10-08T06:35:59;17.30;99.90
2647;DHT22;1333;50.958;6.770;2023-10-08T06:38:38;17.20;99.90
2647;DHT22;1333;50.958;6.770;2023-10-08T06:41:05;17.30;99.90
2647;DHT22;1333;50.958;6.770;2023-10-08T06:43:40;17.30;99.90
2647;DHT22;1333;50.958;6.770;2023-10-08T06:46:12;17.40;99.90
2647;DHT22;1333;50.958;6.770;2023-10-08T06:48:41;17.50;99.90
2647;DHT22;1333;50.958;6.770;2023-10-08T06:51:12;17.50;99.90
2647;DHT22;1333;50.958;6.770;2023-10-08T06:53:44;17.70;99.90
2647;DHT22;1333;50.958;6.770;2023-10-08T06:56:13;17.70;99.90
2647;DHT22;1333;50.958;6.770;2023-10-08T06:58:40;17.80;99.90
2647;DHT22;1333;50.958;6.770;2023-10-08T07:01:20;17.90;99.90
2647;DHT22;1333;50.958;6.770;2023-10-08T07:03:51;18.00;99.90
2647;DHT22;1333;50.958;6.770;2023-10-08T07:06:17;18.20;99.90
2647;DHT22;1333;50.958;6.770;2023-10-08T07:08:51;18.30;99.90
2647;DHT22;1333;50.958;6.770;2023-10-08T07:11:20;18.30;99.90
2647;DHT22;1333;50.958;6.770;2023-10-08T07:13:46;18.40;99.90
2647;DHT22;1333;50.958;6.770;2023-10-08T07:16:12;18.40;99.90
2647;DHT22;1333;50.958;6.770;2023-10-08T07:18:38;18.40;99.90
2647;DHT22;1333;50.958;6.770;2023-10-08T07:21:04;18.30;99.90
2647;DHT22;1333;50.958;6.770;2023-10-08T07:23:38;18.30;99.90
2647;DHT22;1333;50.958;6.770;2023-10-08T07:26:22;18.40;99.90
2647;DHT22;1333;50.958;6.770;2023-10-08T07:28:50;18.50;99.90
2647;DHT22;1333;50.958;6.770;2023-10-08T07:31:23;18.60;99.90
2647;DHT22;1333;50.958;6.770;2023-10-08T07:33:53;18.80;99.90
2647;DHT22;1333;50.958;6.770;2023-10-08T07:36:26;19.10;99.90
2647;DHT22;1333;50.958;6.770;2023-10-08T07:38:55;19.30;99.90
2647;DHT22;1333;50.958;6.770;2023-10-08T07:41:21;19.60;99.90
2647;DHT22;1333;50.958;6.770;2023-10-08T07:43:47;19.70;99.90
2647;DHT22;1333;50.958;6.770;2023-10-08T07:46:23;20.00;99.90
2647;DHT22;1333;50.958;6.770;2023-10-08T07:48:48;20.30;99.90
2647;DHT22;1333;50.958;6.770;2023-10-08T07:51:15;20.60;99.90
2647;DHT22;1333;50.958;6.770;2023-10-08T07:53:42;21.00;99.90
2647;DHT22;1333;50.958;6.770;2023-10-08T07:56:08;21.40;99.90
2647;DHT22;1333;50.958;6.770;2023-10-08T07:58:36;21.70;99.90
2647;DHT22;1333;50.958;6.770;2023-10-08T08:01:03;22.00;99.90
2647;DHT22;1333;50.958;6.770;2023-10-08T08:03:31;22.40;99.90
2647;DHT22;1333;50.958;6.770;2023-10-08T08:05:57;22.80;99.90
2647;DHT22;1333;50.958;6.770;2023-10-08T08:08:24;23.20;99.90
2647;DHT22;1333;50.958;6.770;2023-10-08T08:10:53;23.50;99.90
2647;DHT22;1333;50.958;6.770;2023-10-08T08:13:23;23.70;99.90
2647;DHT22;1333;50.958;6.770;2023-10-08T08:15:53;23.80;99.90
2647;DHT22;1333;50.958;6.770;2023-10-08T08:18:26;23.90;99.90
2647;DHT22;1333;50.958;6.770;2023-10-08T08:20:58;24.00;99.90
2647;DHT22;1333;50.958;6.770;2023-10-08T08:23:30;24.40;99.90
2647;DHT22;1333;50.958;6.770;2023-10-08T08:25:56;24.70;99.90
2647;DHT22;1333;50.958;6.770;2023-10-08T08:28:28;24.80;99.90
2647;DHT22;1333;50.958;6.770;2023-10-08T08:30:54;25.00;99.90
2647;DHT22;1333;50.958;6.770;2023-10-08T08:33:21;25.10;99.90
2647;DHT22;1333;50.958;6.770;2023-10-08T08:36:00;25.00;99.90
2647;DHT22;1333;50.958;6.770;2023-10-08T08:38:26;25.00;99.90
2647;DHT22;1333;50.958;6.770;2023-10-08T08:41:04;24.90;99.90
2647;DHT22;1333;50.958;6.770;2023-10-08T08:43:35;24.90;99.90
2647;DHT22;1333;50.958;6.770;2023-10-08T08:46:03;24.80;99.90
2647;DHT22;1333;50.958;6.770;2023-10-08T08:48:32;24.80;99.90
2647;DHT22;1333;50.958;6.770;2023-10-08T08:50:59;24.70;99.90
2647;DHT22;1333;50.958;6.770;2023-10-08T08:53:24;24.70;99.90
2647;DHT22;1333;50.958;6.770;2023-10-08T08:55:53;24.80;99.90
2647;DHT22;1333;50.958;6.770;2023-10-08T08:58:21;24.90;99.90
2647;DHT22;1333;50.958;6.770;2023-10-08T09:00:47;24.90;99.90
2647;DHT22;1333;50.958;6.770;2023-10-08T09:03:14;24.90;99.90
2647;DHT22;1333;50.958;6.770;2023-10-08T09:05:40;24.90;99.90
2647;DHT22;1333;50.958;6.770;2023-10-08T09:08:07;24.90;99.90
2647;DHT22;1333;50.958;6.770;2023-10-08T09:10:36;24.90;99.90
2647;DHT22;1333;50.958;6.770;2023-10-08T09:13:19;24.90;99.90
2647;DHT22;1333;50.958;6.770;2023-10-08T09:15:51;24.90;99.90
2647;DHT22;1333;50.958;6.770;2023-10-08T09:18:17;25.00;99.90
2647;DHT22;1333;50.958;6.770;2023-10-08T09:20:43;25.20;99.90
2647;DHT22;1333;50.958;6.770;2023-10-08T09:23:09;25.40;99.90
2647;DHT22;1333;50.958;6.770;2023-10-08T09:25:39;25.70;99.90
2647;DHT22;1333;50.958;6.770;2023-10-08T09:28:05;26.10;99.60
2647;DHT22;1333;50.958;6.770;2023-10-08T09:30:36;26.60;98.10
2647;DHT22;1333;50.958;6.770;2023-10-08T09:33:10;27.00;96.30
2647;DHT22;1333;50.958;6.770;2023-10-08T09:35:36;27.50;95.10
2647;DHT22;1333;50.958;6.770;2023-10-08T09:38:06;27.80;93.60
2647;DHT22;1333;50.958;6.770;2023-10-08T09:40:39;28.00;91.80
2647;DHT22;1333;50.958;6.770;2023-10-08T09:43:06;27.90;90.30
2647;DHT22;1333;50.958;6.770;2023-10-08T09:45:34;27.80;88.50
2647;DHT22;1333;50.958;6.770;2023-10-08T09:48:01;27.60;88.10
2647;DHT22;1333;50.958;6.770;2023-10-08T09:50:31;27.30;87.40
2647;DHT22;1333;50.958;6.770;2023-10-08T09:55:33;26.90;89.60
2647;DHT22;1333;50.958;6.770;2023-10-08T09:57:59;26.80;90.10
2647;DHT22;1333;50.958;6.770;2023-10-08T10:00:26;26.70;90.20
2647;DHT22;1333;50.958;6.770;2023-10-08T10:02:59;26.50;90.30
2647;DHT22;1333;50.958;6.770;2023-10-08T10:05:30;26.30;90.70
2647;DHT22;1333;50.958;6.770;2023-10-08T10:07:56;26.20;90.70
2647;DHT22;1333;50.958;6.770;2023-10-08T10:10:30;26.10;91.20
2647;DHT22;1333;50.958;6.770;2023-10-08T10:12:58;26.10;91.90
2647;DHT22;1333;50.958;6.770;2023-10-08T10:15:25;26.30;92.60
2647;DHT22;1333;50.958;6.770;2023-10-08T10:17:51;26.50;92.30
2647;DHT22;1333;50.958;6.770;2023-10-08T10:20:17;26.60;91.80
2647;DHT22;1333;50.958;6.770;2023-10-08T10:22:44;26.60;91.80
2647;DHT22;1333;50.958;6.770;2023-10-08T10:25:11;26.70;91.80
2647;DHT22;1333;50.958;6.770;2023-10-08T10:30:24;26.80;91.30
2647;DHT22;1333;50.958;6.770;2023-10-08T10:32:53;26.80;91.30
2647;DHT22;1333;50.958;6.770;2023-10-08T10:35:19;26.80;91.00
2647;DHT22;1333;50.958;6.770;2023-10-08T10:37:46;26.70;91.00
2647;DHT22;1333;50.958;6.770;2023-10-08T10:40:24;26.70;91.30
2647;DHT22;1333;50.958;6.770;2023-10-08T10:43:16;26.70;91.70
2647;DHT22;1333;50.958;6.770;2023-10-08T10:45:45;26.80;92.20
2647;DHT22;1333;50.958;6.770;2023-10-08T10:48:13;26.90;91.50
2647;DHT22;1333;50.958;6.770;2023-10-08T10:50:51;26.80;91.00
2647;DHT22;1333;50.958;6.770;2023-10-08T10:53:32;26.70;90.90
2647;DHT22;1333;50.958;6.770;2023-10-08T10:56:01;26.60;91.10
2647;DHT22;1333;50.958;6.770;2023-10-08T10:58:35;26.60;91.30
2647;DHT22;1333;50.958;6.770;2023-10-08T11:01:06;26.60;91.50
2647;DHT22;1333;50.958;6.770;2023-10-08T11:04:01;26.60;91.90
2647;DHT22;1333;50.958;6.770;2023-10-08T11:06:30;26.70;92.10
2647;DHT22;1333;50.958;6.770;2023-10-08T11:08:58;26.70;92.00
2647;DHT22;1333;50.958;6.770;2023-10-08T11:11:28;26.90;92.00
2647;DHT22;1333;50.958;6.770;2023-10-08T11:13:59;27.30;91.90
2647;DHT22;1333;50.958;6.770;2023-10-08T11:16:26;27.90;91.60
2647;DHT22;1333;50.958;6.770;2023-10-08T11:18:53;28.70;90.70
2647;DHT22;1333;50.958;6.770;2023-10-08T11:21:23;29.80;88.20
2647;DHT22;1333;50.958;6.770;2023-10-08T11:23:51;31.30;85.00
2647;DHT22;1333;50.958;6.770;2023-10-08T11:26:19;33.00;78.50
2647;DHT22;1333;50.958;6.770;2023-10-08T11:28:45;35.70;71.40
2647;DHT22;1333;50.958;6.770;2023-10-08T11:31:16;38.50;55.80
2647;DHT22;1333;50.958;6.770;2023-10-08T11:33:45;41.00;47.70
2647;DHT22;1333;50.958;6.770;2023-10-08T11:36:20;42.70;41.10
2647;DHT22;1333;50.958;6.770;2023-10-08T11:38:50;43.80;38.20
2647;DHT22;1333;50.958;6.770;2023-10-08T11:41:19;45.20;35.20
2647;DHT22;1333;50.958;6.770;2023-10-08T11:46:14;46.80;30.20
2647;DHT22;1333;50.958;6.770;2023-10-08T11:48:43;47.50;29.40
2647;DHT22;1333;50.958;6.770;2023-10-08T11:51:12;48.20;28.30
2647;DHT22;1333;50.958;6.770;2023-10-08T11:53:43;48.40;27.30
2647;DHT22;1333;50.958;6.770;2023-10-08T11:56:10;48.00;27.20
2647;DHT22;1333;50.958;6.770;2023-10-08T11:58:40;48.10;26.70
2647;DHT22;1333;50.958;6.770;2023-10-08T12:01:12;48.50;26.80
2647;DHT22;1333;50.958;6.770;2023-10-08T12:03:42;48.90;26.40
2647;DHT22;1333;50.958;6.770;2023-10-08T12:06:12;48.30;25.70
2647;DHT22;1333;50.958;6.770;2023-10-08T12:08:47;46.60;25.60
2647;DHT22;1333;50.958;6.770;2023-10-08T12:11:13;44.70;26.50
2647;DHT22;1333;50.958;6.770;2023-10-08T12:13:40;43.40;27.20
2647;DHT22;1333;50.958;6.770;2023-10-08T12:16:14;42.00;28.10
2647;DHT22;1333;50.958;6.770;2023-10-08T12:18:49;40.30;28.60
2647;DHT22;1333;50.958;6.770;2023-10-08T12:21:21;38.50;29.70
2647;DHT22;1333;50.958;6.770;2023-10-08T12:23:47;36.90;31.80
2647;DHT22;1333;50.958;6.770;2023-10-08T12:26:15;35.40;32.90
2647;DHT22;1333;50.958;6.770;2023-10-08T12:28:47;34.10;34.80
2647;DHT22;1333;50.958;6.770;2023-10-08T12:31:17;33.00;36.60
2647;DHT22;1333;50.958;6.770;2023-10-08T12:33:47;32.00;38.00
2647;DHT22;1333;50.958;6.770;2023-10-08T12:36:13;31.20;39.70
2647;DHT22;1333;50.958;6.770;2023-10-08T12:38:43;30.40;41.10
2647;DHT22;1333;50.958;6.770;2023-10-08T12:41:12;29.80;42.60
2647;DHT22;1333;50.958;6.770;2023-10-08T12:43:38;29.30;43.90
2647;DHT22;1333;50.958;6.770;2023-10-08T12:46:05;28.80;45.00
2647;DHT22;1333;50.958;6.770;2023-10-08T12:48:36;28.30;46.20
2647;DHT22;1333;50.958;6.770;2023-10-08T12:51:02;27.70;47.70
2647;DHT22;1333;50.958;6.770;2023-10-08T12:53:31;27.20;49.20
2647;DHT22;1333;50.958;6.770;2023-10-08T12:56:05;26.80;50.80
2647;DHT22;1333;50.958;6.770;2023-10-08T12:58:40;26.50;52.50
2647;DHT22;1333;50.958;6.770;2023-10-08T13:01:15;26.10;56.10
2647;DHT22;1333;50.958;6.770;2023-10-08T13:03:43;26.00;58.70
2647;DHT22;1333;50.958;6.770;2023-10-08T13:06:13;26.00;63.50
2647;DHT22;1333;50.958;6.770;2023-10-08T13:08:49;26.10;65.70
2647;DHT22;1333;50.958;6.770;2023-10-08T13:11:21;26.10;67.40
2647;DHT22;1333;50.958;6.770;2023-10-08T13:13:50;26.20;69.80
2647;DHT22;1333;50.958;6.770;2023-10-08T13:16:17;27.20;73.30
2647;DHT22;1333;50.958;6.770;2023-10-08T13:18:42;28.20;66.80
2647;DHT22;1333;50.958;6.770;2023-10-08T13:21:09;28.50;60.30
2647;DHT22;1333;50.958;6.770;2023-10-08T13:23:35;28.00;59.80
2647;DHT22;1333;50.958;6.770;2023-10-08T13:26:01;27.70;59.90
2647;DHT22;1333;50.958;6.770;2023-10-08T13:28:30;27.50;61.00
2647;DHT22;1333;50.958;6.770;2023-10-08T13:30:55;27.20;62.40
2647;DHT22;1333;50.958;6.770;2023-10-08T13:33:21;26.90;63.50
2647;DHT22;1333;50.958;6.770;2023-10-08T13:35:51;26.80;65.10
2647;DHT22;1333;50.958;6.770;2023-10-08T13:38:17;26.60;66.40
2647;DHT22;1333;50.958;6.770;2023-10-08T13:40:48;26.20;68.90
2647;DHT22;1333;50.958;6.770;2023-10-08T13:43:33;26.20;71.30
2647;DHT22;1333;50.958;6.770;2023-10-08T13:46:03;27.40;77.00
2647;DHT22;1333;50.958;6.770;2023-10-08T13:48:39;28.50;68.30
2647;DHT22;1333;50.958;6.770;2023-10-08T13:51:06;28.60;65.00
2647;DHT22;1333;50.958;6.770;2023-10-08T13:53:41;28.30;63.30
2647;DHT22;1333;50.958;6.770;2023-10-08T13:56:11;28.10;64.20
2647;DHT22;1333;50.958;6.770;2023-10-08T13:58:39;28.30;67.00
2647;DHT22;1333;50.958;6.770;2023-10-08T14:01:15;29.30;68.60
2647;DHT22;1333;50.958;6.770;2023-10-08T14:03:48;30.50;62.80
2647;DHT22;1333;50.958;6.770;2023-10-08T14:06:15;31.00;59.40
2647;DHT22;1333;50.958;6.770;2023-10-08T14:08:42;30.90;56.20
2647;DHT22;1333;50.958;6.770;2023-10-08T14:11:10;30.70;56.50
2647;DHT22;1333;50.958;6.770;2023-10-08T14:13:38;30.10;55.60
2647;DHT22;1333;50.958;6.770;2023-10-08T14:16:03;29.80;56.40
2647;DHT22;1333;50.958;6.770;2023-10-08T14:18:33;29.50;57.10
2647;DHT22;1333;50.958;6.770;2023-10-08T14:21:07;29.00;57.70
2647;DHT22;1333;50.958;6.770;2023-10-08T14:23:36;28.60;58.40
2647;DHT22;1333;50.958;6.770;2023-10-08T14:26:09;28.20;59.40
2647;DHT22;1333;50.958;6.770;2023-10-08T14:28:43;27.80;61.50
2647;DHT22;1333;50.958;6.770;2023-10-08T14:31:16;27.20;62.90
2647;DHT22;1333;50.958;6.770;2023-10-08T14:33:43;26.90;64.70
2647;DHT22;1333;50.958;6.770;2023-10-08T14:36:24;26.40;66.30
2647;DHT22;1333;50.958;6.770;2023-10-08T14:39:09;25.80;71.70
2647;DHT22;1333;50.958;6.770;2023-10-08T14:41:53;25.00;78.90
2647;DHT22;1333;50.958;6.770;2023-10-08T14:44:38;25.00;88.60
2647;DHT22;1333;50.958;6.770;2023-10-08T14:47:07;25.10;91.50
2647;DHT22;1333;50.958;6.770;2023-10-08T14:49:35;25.10;92.10
2647;DHT22;1333;50.958;6.770;2023-10-08T14:52:01;25.00;92.60
2647;DHT22;1333;50.958;6.770;2023-10-08T14:54:33;24.80;93.50
2647;DHT22;1333;50.958;6.770;2023-10-08T14:57:03;24.60;95.10
2647;DHT22;1333;50.958;6.770;2023-10-08T14:59:31;24.40;97.10
2647;DHT22;1333;50.958;6.770;2023-10-08T15:01:57;24.30;99.70
2647;DHT22;1333;50.958;6.770;2023-10-08T15:04:26;24.30;99.90
2647;DHT22;1333;50.958;6.770;2023-10-08T15:06:56;24.40;99.90
2647;DHT22;1333;50.958;6.770;2023-10-08T15:09:22;24.50;99.90
2647;DHT22;1333;50.958;6.770;2023-10-08T15:11:52;24.40;99.90
2647;DHT22;1333;50.958;6.770;2023-10-08T15:14:21;24.40;99.90
2647;DHT22;1333;50.958;6.770;2023-10-08T15:16:49;24.30;99.90
2647;DHT22;1333;50.958;6.770;2023-10-08T15:19:20;24.30;99.90
2647;DHT22;1333;50.958;6.770;2023-10-08T15:21:48;24.30;99.90
2647;DHT22;1333;50.958;6.770;2023-10-08T15:24:20;24.50;99.90
2647;DHT22;1333;50.958;6.770;2023-10-08T15:26:54;24.80;99.90
2647;DHT22;1333;50.958;6.770;2023-10-08T15:29:23;25.20;99.90
2647;DHT22;1333;50.958;6.770;2023-10-08T15:31:55;25.60;99.90
2647;DHT22;1333;50.958;6.770;2023-10-08T15:34:22;25.90;99.90
2647;DHT22;1333;50.958;6.770;2023-10-08T15:36:49;25.90;99.90
2647;DHT22;1333;50.958;6.770;2023-10-08T15:39:16;25.90;99.90
2647;DHT22;1333;50.958;6.770;2023-10-08T15:41:52;25.90;99.90
2647;DHT22;1333;50.958;6.770;2023-10-08T15:44:18;25.70;99.90
2647;DHT22;1333;50.958;6.770;2023-10-08T15:46:47;25.70;99.90
2647;DHT22;1333;50.958;6.770;2023-10-08T15:49:12;25.60;99.90
2647;DHT22;1333;50.958;6.770;2023-10-08T15:51:38;25.50;99.90
2647;DHT22;1333;50.958;6.770;2023-10-08T15:54:05;25.20;99.90
2647;DHT22;1333;50.958;6.770;2023-10-08T15:56:31;24.90;99.90
2647;DHT22;1333;50.958;6.770;2023-10-08T15:58:57;24.70;99.90
2647;DHT22;1333;50.958;6.770;2023-10-08T16:01:23;24.40;99.90
2647;DHT22;1333;50.958;6.770;2023-10-08T16:03:49;24.10;99.90
2647;DHT22;1333;50.958;6.770;2023-10-08T16:06:19;23.80;99.90
2647;DHT22;1333;50.958;6.770;2023-10-08T16:08:52;23.50;99.90
2647;DHT22;1333;50.958;6.770;2023-10-08T16:11:30;23.20;99.90
2647;DHT22;1333;50.958;6.770;2023-10-08T16:14:01;22.90;99.90
2647;DHT22;1333;50.958;6.770;2023-10-08T16:16:31;22.70;99.90
2647;DHT22;1333;50.958;6.770;2023-10-08T16:18:56;22.40;99.90
2647;DHT22;1333;50.958;6.770;2023-10-08T16:21:22;22.20;99.90
2647;DHT22;1333;50.958;6.770;2023-10-08T16:23:47;22.00;99.90
2647;DHT22;1333;50.958;6.770;2023-10-08T16:26:13;21.80;99.90
2647;DHT22;1333;50.958;6.770;2023-10-08T16:28:38;21.60;99.90
2647;DHT22;1333;50.958;6.770;2023-10-08T16:31:04;21.40;99.90
2647;DHT22;1333;50.958;6.770;2023-10-08T16:33:32;21.20;99.90